sensor_id;sensor_type;location;lat;lon;timestamp;temperature;humidity
14749;DHT22;7466;53.574;9.976;2023-05-10T00:01:43;14.40;99.90
14749;DHT22;7466;53.574;9.976;2023-05-10T00:04:10;14.40;99.90
14749;DHT22;7466;53.574;9.976;2023-05-10T00:06:36;14.40;99.90
14749;DHT22;7466;53.574;9.976;2023-05-10T00:09:03;14.40;99.90
14749;DHT22;7466;53.574;9.976;2023-05-10T00:11:30;14.30;99.90
14749;DHT22;7466;53.574;9.976;2023-05-10T00:13:58;14.30;99.90
14749;DHT22;7466;53.574;9.976;2023-05-10T00:16:25;14.30;99.90
14749;DHT22;7466;53.574;9.976;2023-05-10T00:18:52;14.30;99.90
14749;DHT22;7466;53.574;9.976;2023-05-10T00:21:18;14.20;99.90
14749;DHT22;7466;53.574;9.976;2023-05-10T00:23:45;14.10;99.90
14749;DHT22;7466;53.574;9.976;2023-05-10T00:26:12;14.20;99.90
14749;DHT22;7466;53.574;9.976;2023-05-10T00:28:39;14.10;99.90
14749;DHT22;7466;53.574;9.976;2023-05-10T00:31:07;14.10;99.90
14749;DHT22;7466;53.574;9.976;2023-05-10T00:33:35;14.10;99.90
14749;DHT22;7466;53.574;9.976;2023-05-10T00:36:02;14.10;99.90
14749;DHT22;7466;53.574;9.976;2023-05-10T00:38:29;14.10;99.90
14749;DHT22;7466;53.574;9.976;2023-05-10T00:40:56;14.10;99.90
14749;DHT22;7466;53.574;9.976;2023-05-10T00:43:23;14.00;99.90
14749;DHT22;7466;53.574;9.976;2023-05-10T00:45:50;14.00;99.90
14749;DHT22;7466;53.574;9.976;2023-05-10T00:48:18;14.00;99.90
14749;DHT22;7466;53.574;9.976;2023-05-10T00:50:45;13.90;99.90
14749;DHT22;7466;53.574;9.976;2023-05-10T00:53:13;13.90;99.90
14749;DHT22;7466;53.574;9.976;2023-05-10T00:55:40;13.90;99.90
14749;DHT22;7466;53.574;9.976;2023-05-10T00:58:08;13.90;99.90
14749;DHT22;7466;53.574;9.976;2023-05-10T01:00:35;13.80;99.90
14749;DHT22;7466;53.574;9.976;2023-05-10T01:03:03;13.80;99.90
14749;DHT22;7466;53.574;9.976;2023-05-10T01:05:32;13.70;99.90
14749;DHT22;7466;53.574;9.976;2023-05-10T01:07:58;13.70;99.90
14749;DHT22;7466;53.574;9.976;2023-05-10T01:10:25;13.70;99.90
14749;DHT22;7466;53.574;9.976;2023-05-10T01:12:52;13.70;99.90
14749;DHT22;7466;53.574;9.976;2023-05-10T01:15:20;13.70;99.90
14749;DHT22;7466;53.574;9.976;2023-05-10T01:17:48;13.60;99.90
14749;DHT22;7466;53.574;9.976;2023-05-10T01:20:15;13.60;99.90
14749;DHT22;7466;53.574;9.976;2023-05-10T01:23:10;13.60;99.90
14749;DHT22;7466;53.574;9.976;2023-05-10T01:26:05;13.50;99.90
14749;DHT22;7466;53.574;9.976;2023-05-10T01:29:11;13.50;99.90
14749;DHT22;7466;53.574;9.976;2023-05-10T01:32:03;13.40;99.90
14749;DHT22;7466;53.574;9.976;2023-05-10T01:34:35;13.40;99.90
14749;DHT22;7466;53.574;9.976;2023-05-10T01:37:07;13.40;99.90
14749;DHT22;7466;53.574;9.976;2023-05-10T01:39:39;13.30;99.90
14749;DHT22;7466;53.574;9.976;2023-05-10T01:42:13;13.30;99.90
14749;DHT22;7466;53.574;9.976;2023-05-10T01:44:46;13.30;99.90
14749;DHT22;7466;53.574;9.976;2023-05-10T01:47:22;13.30;99.90
14749;DHT22;7466;53.574;9.976;2023-05-10T01:49:53;13.20;99.90
14749;DHT22;7466;53.574;9.976;2023-05-10T01:52:26;13.20;99.90
14749;DHT22;7466;53.574;9.976;2023-05-10T01:55:07;13.20;99.90
14749;DHT22;7466;53.574;9.976;2023-05-10T01:57:37;13.10;99.90
14749;DHT22;7466;53.574;9.976;2023-05-10T02:00:07;13.00;99.90
14749;DHT22;7466;53.574;9.976;2023-05-10T02:02:37;13.10;99.90
14749;DHT22;7466;53.574;9.976;2023-05-10T02:05:06;13.00;99.90
14749;DHT22;7466;53.574;9.976;2023-05-10T02:07:40;13.10;99.90
14749;DHT22;7466;53.574;9.976;2023-05-10T02:10:09;13.00;99.90
14749;DHT22;7466;53.574;9.976;2023-05-10T02:12:42;13.00;99.90
14749;DHT22;7466;53.574;9.976;2023-05-10T02:15:12;13.00;99.90
14749;DHT22;7466;53.574;9.976;2023-05-10T02:17:42;12.90;99.90
14749;DHT22;7466;53.574;9.976;2023-05-10T02:20:10;12.90;99.90
14749;DHT22;7466;53.574;9.976;2023-05-10T02:22:39;12.90;99.90
14749;DHT22;7466;53.574;9.976;2023-05-10T02:25:13;12.80;99.90
14749;DHT22;7466;53.574;9.976;2023-05-10T02:27:41;12.90;99.90
14749;DHT22;7466;53.574;9.976;2023-05-10T02:30:10;12.80;99.90
14749;DHT22;7466;53.574;9.976;2023-05-10T02:32:38;12.80;99.90
14749;DHT22;7466;53.574;9.976;2023-05-10T02:35:07;12.70;99.90
14749;DHT22;7466;53.574;9.976;2023-05-10T02:37:36;12.70;99.90
14749;DHT22;7466;53.574;9.976;2023-05-10T02:40:05;12.70;99.90
14749;DHT22;7466;53.574;9.976;2023-05-10T02:42:35;12.60;99.90
14749;DHT22;7466;53.574;9.976;2023-05-10T02:45:07;12.60;99.90
14749;DHT22;7466;53.574;9.976;2023-05-10T02:47:37;12.60;99.90
14749;DHT22;7466;53.574;9.976;2023-05-10T02:50:10;12.70;99.90
14749;DHT22;7466;53.574;9.976;2023-05-10T02:52:41;12.70;99.90
14749;DHT22;7466;53.574;9.976;2023-05-10T02:55:11;12.60;99.90
14749;DHT22;7466;53.574;9.976;2023-05-10T02:57:41;12.60;99.90
14749;DHT22;7466;53.574;9.976;2023-05-10T03:00:10;12.70;99.90
14749;DHT22;7466;53.574;9.976;2023-05-10T03:02:37;12.60;99.90
14749;DHT22;7466;53.574;9.976;2023-05-10T03:05:22;12.50;99.90
14749;DHT22;7466;53.574;9.976;2023-05-10T03:07:51;12.60;99.90
14749;DHT22;7466;53.574;9.976;2023-05-10T03:10:18;12.50;99.90
14749;DHT22;7466;53.574;9.976;2023-05-10T03:12:56;12.50;99.90
14749;DHT22;7466;53.574;9.976;2023-05-10T03:15:46;12.50;99.90
14749;DHT22;7466;53.574;9.976;2023-05-10T03:18:18;12.50;99.90
14749;DHT22;7466;53.574;9.976;2023-05-10T03:20:50;12.50;99.90
14749;DHT22;7466;53.574;9.976;2023-05-10T03:23:22;12.40;99.90
14749;DHT22;7466;53.574;9.976;2023-05-10T03:25:52;12.40;99.90
14749;DHT22;7466;53.574;9.976;2023-05-10T03:28:21;12.40;99.90
14749;DHT22;7466;53.574;9.976;2023-05-10T03:30:49;12.50;99.90
14749;DHT22;7466;53.574;9.976;2023-05-10T03:33:18;12.50;99.90
14749;DHT22;7466;53.574;9.976;2023-05-10T03:35:45;12.40;99.90
14749;DHT22;7466;53.574;9.976;2023-05-10T03:38:13;12.40;99.90
14749;DHT22;7466;53.574;9.976;2023-05-10T03:40:41;12.40;99.90
14749;DHT22;7466;53.574;9.976;2023-05-10T03:43:08;12.40;99.90
14749;DHT22;7466;53.574;9.976;2023-05-10T03:45:35;12.40;99.90
14749;DHT22;7466;53.574;9.976;2023-05-10T03:48:02;12.40;99.90
14749;DHT22;7466;53.574;9.976;2023-05-10T03:50:29;12.40;99.90
14749;DHT22;7466;53.574;9.976;2023-05-10T03:52:55;12.30;99.90
14749;DHT22;7466;53.574;9.976;2023-05-10T03:55:26;12.30;99.90
14749;DHT22;7466;53.574;9.976;2023-05-10T03:57:53;12.30;99.90
14749;DHT22;7466;53.574;9.976;2023-05-10T04:00:23;12.30;99.90
14749;DHT22;7466;53.574;9.976;2023-05-10T04:02:50;12.40;99.90
14749;DHT22;7466;53.574;9.976;2023-05-10T04:05:17;12.30;99.90
14749;DHT22;7466;53.574;9.976;2023-05-10T04:07:43;12.30;99.90
14749;DHT22;7466;53.574;9.976;2023-05-10T04:10:11;12.30;99.90
14749;DHT22;7466;53.574;9.976;2023-05-10T04:12:39;12.40;99.90
14749;DHT22;7466;53.574;9.976;2023-05-10T04:15:06;12.30;99.90
14749;DHT22;7466;53.574;9.976;2023-05-10T04:17:33;12.40;99.90
14749;DHT22;7466;53.574;9.976;2023-05-10T04:20:00;12.30;99.90
14749;DHT22;7466;53.574;9.976;2023-05-10T04:22:27;12.40;99.90
14749;DHT22;7466;53.574;9.976;2023-05-10T04:24:54;12.40;99.90
14749;DHT22;7466;53.574;9.976;2023-05-10T04:27:21;12.40;99.90
14749;DHT22;7466;53.574;9.976;2023-05-10T04:29:49;12.30;99.90
14749;DHT22;7466;53.574;9.976;2023-05-10T04:32:16;12.40;99.90
14749;DHT22;7466;53.574;9.976;2023-05-10T04:34:44;12.30;99.90
14749;DHT22;7466;53.574;9.976;2023-05-10T04:37:11;12.40;99.90
14749;DHT22;7466;53.574;9.976;2023-05-10T04:39:38;12.30;99.90
14749;DHT22;7466;53.574;9.976;2023-05-10T04:42:05;12.30;99.90
14749;DHT22;7466;53.574;9.976;2023-05-10T04:44:32;12.40;99.90
14749;DHT22;7466;53.574;9.976;2023-05-10T04:47:00;12.30;99.90
14749;DHT22;7466;53.574;9.976;2023-05-10T04:49:27;12.30;99.90
14749;DHT22;7466;53.574;9.976;2023-05-10T04:51:54;12.30;99.90
14749;DHT22;7466;53.574;9.976;2023-05-10T04:54:21;12.40;99.90
14749;DHT22;7466;53.574;9.976;2023-05-10T04:56:48;12.40;99.90
14749;DHT22;7466;53.574;9.976;2023-05-10T04:59:15;12.50;99.90
14749;DHT22;7466;53.574;9.976;2023-05-10T05:01:41;12.50;99.90
14749;DHT22;7466;53.574;9.976;2023-05-10T05:04:10;12.50;99.90
14749;DHT22;7466;53.574;9.976;2023-05-10T05:06:36;12.60;99.90
14749;DHT22;7466;53.574;9.976;2023-05-10T05:09:03;12.60;99.90
14749;DHT22;7466;53.574;9.976;2023-05-10T05:11:30;12.70;99.90
14749;DHT22;7466;53.574;9.976;2023-05-10T05:13:56;12.80;99.90
14749;DHT22;7466;53.574;9.976;2023-05-10T05:16:24;12.80;99.90
14749;DHT22;7466;53.574;9.976;2023-05-10T05:18:51;12.80;99.90
14749;DHT22;7466;53.574;9.976;2023-05-10T05:21:22;13.00;99.90
14749;DHT22;7466;53.574;9.976;2023-05-10T05:23:52;13.20;99.90
14749;DHT22;7466;53.574;9.976;2023-05-10T05:26:18;13.20;99.90
14749;DHT22;7466;53.574;9.976;2023-05-10T05:28:45;13.20;99.90
14749;DHT22;7466;53.574;9.976;2023-05-10T05:31:14;13.30;99.90
14749;DHT22;7466;53.574;9.976;2023-05-10T05:33:40;13.30;99.90
14749;DHT22;7466;53.574;9.976;2023-05-10T05:36:10;13.30;99.90
14749;DHT22;7466;53.574;9.976;2023-05-10T05:38:47;13.40;99.90
14749;DHT22;7466;53.574;9.976;2023-05-10T05:41:30;13.50;99.90
14749;DHT22;7466;53.574;9.976;2023-05-10T05:43:57;13.60;99.90
14749;DHT22;7466;53.574;9.976;2023-05-10T05:46:23;13.60;99.90
14749;DHT22;7466;53.574;9.976;2023-05-10T05:48:54;13.40;99.90
14749;DHT22;7466;53.574;9.976;2023-05-10T05:51:21;13.50;99.90
14749;DHT22;7466;53.574;9.976;2023-05-10T05:53:49;13.60;99.90
14749;DHT22;7466;53.574;9.976;2023-05-10T05:56:15;13.50;99.90
14749;DHT22;7466;53.574;9.976;2023-05-10T05:58:49;13.60;99.90
14749;DHT22;7466;53.574;9.976;2023-05-10T06:01:16;13.60;99.90
14749;DHT22;7466;53.574;9.976;2023-05-10T06:03:43;13.60;99.90
14749;DHT22;7466;53.574;9.976;2023-05-10T06:06:09;13.60;99.90
14749;DHT22;7466;53.574;9.976;2023-05-10T06:08:36;13.90;99.90
14749;DHT22;7466;53.574;9.976;2023-05-10T06:11:04;14.00;99.90
14749;DHT22;7466;53.574;9.976;2023-05-10T06:13:33;14.10;99.90
14749;DHT22;7466;53.574;9.976;2023-05-10T06:16:03;14.30;99.90
14749;DHT22;7466;53.574;9.976;2023-05-10T06:18:30;14.40;99.90
14749;DHT22;7466;53.574;9.976;2023-05-10T06:20:57;14.30;99.90
14749;DHT22;7466;53.574;9.976;2023-05-10T06:23:24;14.40;99.90
14749;DHT22;7466;53.574;9.976;2023-05-10T06:25:54;14.40;99.90
14749;DHT22;7466;53.574;9.976;2023-05-10T06:28:22;14.40;99.90
14749;DHT22;7466;53.574;9.976;2023-05-10T06:30:49;14.30;99.90
14749;DHT22;7466;53.574;9.976;2023-05-10T06:33:16;14.30;99.90
14749;DHT22;7466;53.574;9.976;2023-05-10T06:35:42;14.50;99.90
14749;DHT22;7466;53.574;9.976;2023-05-10T06:38:09;14.70;99.90
14749;DHT22;7466;53.574;9.976;2023-05-10T06:40:36;14.70;99.90
14749;DHT22;7466;53.574;9.976;2023-05-10T06:43:03;14.70;99.90
14749;DHT22;7466;53.574;9.976;2023-05-10T06:45:31;14.50;99.90
14749;DHT22;7466;53.574;9.976;2023-05-10T06:47:58;14.60;99.90
14749;DHT22;7466;53.574;9.976;2023-05-10T06:50:25;14.60;99.90
14749;DHT22;7466;53.574;9.976;2023-05-10T06:52:51;14.60;99.90
14749;DHT22;7466;53.574;9.976;2023-05-10T06:55:18;14.80;99.90
14749;DHT22;7466;53.574;9.976;2023-05-10T06:57:45;14.60;99.90
14749;DHT22;7466;53.574;9.976;2023-05-10T07:00:13;14.70;99.90
14749;DHT22;7466;53.574;9.976;2023-05-10T07:02:42;14.90;99.90
14749;DHT22;7466;53.574;9.976;2023-05-10T07:05:09;14.90;99.90
14749;DHT22;7466;53.574;9.976;2023-05-10T07:07:35;15.10;99.90
14749;DHT22;7466;53.574;9.976;2023-05-10T07:10:03;15.40;99.90
14749;DHT22;7466;53.574;9.976;2023-05-10T07:12:30;15.30;99.90
14749;DHT22;7466;53.574;9.976;2023-05-10T07:14:59;15.40;99.90
14749;DHT22;7466;53.574;9.976;2023-05-10T07:17:26;15.70;99.90
14749;DHT22;7466;53.574;9.976;2023-05-10T07:19:54;15.90;99.90
14749;DHT22;7466;53.574;9.976;2023-05-10T07:22:21;16.10;99.90
14749;DHT22;7466;53.574;9.976;2023-05-10T07:24:47;16.10;99.90
14749;DHT22;7466;53.574;9.976;2023-05-10T07:27:14;16.10;99.90
14749;DHT22;7466;53.574;9.976;2023-05-10T07:29:41;16.00;99.90
14749;DHT22;7466;53.574;9.976;2023-05-10T07:32:07;16.00;99.90
14749;DHT22;7466;53.574;9.976;2023-05-10T07:34:34;16.20;99.90
14749;DHT22;7466;53.574;9.976;2023-05-10T07:37:02;16.30;99.90
14749;DHT22;7466;53.574;9.976;2023-05-10T07:39:32;16.40;99.90
14749;DHT22;7466;53.574;9.976;2023-05-10T07:42:00;16.60;99.90
14749;DHT22;7466;53.574;9.976;2023-05-10T07:44:29;16.40;99.90
14749;DHT22;7466;53.574;9.976;2023-05-10T07:46:56;16.70;99.90
14749;DHT22;7466;53.574;9.976;2023-05-10T07:49:22;16.40;99.90
14749;DHT22;7466;53.574;9.976;2023-05-10T07:51:50;16.70;99.90
14749;DHT22;7466;53.574;9.976;2023-05-10T07:54:18;16.50;99.90
14749;DHT22;7466;53.574;9.976;2023-05-10T07:56:50;16.60;99.90
14749;DHT22;7466;53.574;9.976;2023-05-10T07:59:17;16.60;99.90
14749;DHT22;7466;53.574;9.976;2023-05-10T08:01:44;16.80;99.90
14749;DHT22;7466;53.574;9.976;2023-05-10T08:04:11;16.70;99.90
14749;DHT22;7466;53.574;9.976;2023-05-10T08:06:38;16.70;99.90
14749;DHT22;7466;53.574;9.976;2023-05-10T08:09:14;16.60;99.90
14749;DHT22;7466;53.574;9.976;2023-05-10T08:11:44;16.80;99.90
14749;DHT22;7466;53.574;9.976;2023-05-10T08:14:11;16.60;99.90
14749;DHT22;7466;53.574;9.976;2023-05-10T08:16:37;16.50;99.90
14749;DHT22;7466;53.574;9.976;2023-05-10T08:19:04;16.30;99.90
14749;DHT22;7466;53.574;9.976;2023-05-10T08:21:31;16.40;99.90
14749;DHT22;7466;53.574;9.976;2023-05-10T08:23:58;16.40;99.90
14749;DHT22;7466;53.574;9.976;2023-05-10T08:26:25;16.40;99.90
14749;DHT22;7466;53.574;9.976;2023-05-10T08:28:53;16.60;99.90
14749;DHT22;7466;53.574;9.976;2023-05-10T08:31:53;16.90;99.90
14749;DHT22;7466;53.574;9.976;2023-05-10T08:34:10;16.90;99.90
14749;DHT22;7466;53.574;9.976;2023-05-10T08:36:37;17.10;99.90
14749;DHT22;7466;53.574;9.976;2023-05-10T08:39:04;16.90;99.90
14749;DHT22;7466;53.574;9.976;2023-05-10T08:41:33;17.00;99.90
14749;DHT22;7466;53.574;9.976;2023-05-10T08:44:04;17.00;99.90
14749;DHT22;7466;53.574;9.976;2023-05-10T08:46:31;17.00;99.90
14749;DHT22;7466;53.574;9.976;2023-05-10T08:49:02;17.00;99.90
14749;DHT22;7466;53.574;9.976;2023-05-10T08:51:31;17.20;99.90
14749;DHT22;7466;53.574;9.976;2023-05-10T08:54:01;17.30;99.90
14749;DHT22;7466;53.574;9.976;2023-05-10T08:56:28;17.40;99.90
14749;DHT22;7466;53.574;9.976;2023-05-10T08:58:57;17.40;99.90
14749;DHT22;7466;53.574;9.976;2023-05-10T09:01:25;17.40;99.90
14749;DHT22;7466;53.574;9.976;2023-05-10T09:03:53;17.30;99.90
14749;DHT22;7466;53.574;9.976;2023-05-10T09:06:22;17.40;99.90
14749;DHT22;7466;53.574;9.976;2023-05-10T09:08:49;17.60;99.90
14749;DHT22;7466;53.574;9.976;2023-05-10T09:11:21;17.80;99.90
14749;DHT22;7466;53.574;9.976;2023-05-10T09:13:48;17.80;99.90
14749;DHT22;7466;53.574;9.976;2023-05-10T09:16:24;18.10;99.90
14749;DHT22;7466;53.574;9.976;2023-05-10T09:18:54;17.90;99.90
14749;DHT22;7466;53.574;9.976;2023-05-10T09:21:21;17.60;99.90
14749;DHT22;7466;53.574;9.976;2023-05-10T09:23:51;17.40;99.90
14749;DHT22;7466;53.574;9.976;2023-05-10T09:26:22;17.20;99.90
14749;DHT22;7466;53.574;9.976;2023-05-10T09:28:52;17.30;99.90
14749;DHT22;7466;53.574;9.976;2023-05-10T09:31:23;17.30;99.90
14749;DHT22;7466;53.574;9.976;2023-05-10T09:33:54;17.00;99.90
14749;DHT22;7466;53.574;9.976;2023-05-10T09:36:20;16.90;99.90
14749;DHT22;7466;53.574;9.976;2023-05-10T09:38:57;16.70;99.90
14749;DHT22;7466;53.574;9.976;2023-05-10T09:41:24;16.60;99.90
14749;DHT22;7466;53.574;9.976;2023-05-10T09:43:56;16.40;99.90
14749;DHT22;7466;53.574;9.976;2023-05-10T09:46:29;16.20;99.90
14749;DHT22;7466;53.574;9.976;2023-05-10T09:49:02;16.00;99.90
14749;DHT22;7466;53.574;9.976;2023-05-10T09:51:29;15.90;99.90
14749;DHT22;7466;53.574;9.976;2023-05-10T09:54:09;15.80;99.90
14749;DHT22;7466;53.574;9.976;2023-05-10T09:56:37;15.70;99.90
14749;DHT22;7466;53.574;9.976;2023-05-10T09:59:09;15.70;99.90
14749;DHT22;7466;53.574;9.976;2023-05-10T10:01:36;15.70;99.90
14749;DHT22;7466;53.574;9.976;2023-05-10T10:04:06;15.70;99.90
14749;DHT22;7466;53.574;9.976;2023-05-10T10:06:36;15.70;99.90
14749;DHT22;7466;53.574;9.976;2023-05-10T10:09:05;15.50;99.90
14749;DHT22;7466;53.574;9.976;2023-05-10T10:11:34;15.30;99.90
14749;DHT22;7466;53.574;9.976;2023-05-10T10:14:01;15.20;99.90
14749;DHT22;7466;53.574;9.976;2023-05-10T10:16:29;15.20;99.90
14749;DHT22;7466;53.574;9.976;2023-05-10T10:18:56;14.80;99.90
14749;DHT22;7466;53.574;9.976;2023-05-10T10:21:24;14.80;99.90
14749;DHT22;7466;53.574;9.976;2023-05-10T10:23:51;14.60;99.90
14749;DHT22;7466;53.574;9.976;2023-05-10T10:26:19;14.50;99.90
14749;DHT22;7466;53.574;9.976;2023-05-10T10:29:04;14.50;99.90
14749;DHT22;7466;53.574;9.976;2023-05-10T10:31:38;14.60;99.90
14749;DHT22;7466;53.574;9.976;2023-05-10T10:34:06;14.50;99.90
14749;DHT22;7466;53.574;9.976;2023-05-10T10:36:43;14.40;99.90
14749;DHT22;7466;53.574;9.976;2023-05-10T10:39:11;14.40;99.90
14749;DHT22;7466;53.574;9.976;2023-05-10T10:41:39;14.50;99.90
14749;DHT22;7466;53.574;9.976;2023-05-10T10:44:35;14.50;99.90
14749;DHT22;7466;53.574;9.976;2023-05-10T10:47:22;14.50;99.90
14749;DHT22;7466;53.574;9.976;2023-05-10T10:49:53;14.50;99.90
14749;DHT22;7466;53.574;9.976;2023-05-10T10:52:35;14.70;99.90
14749;DHT22;7466;53.574;9.976;2023-05-10T10:55:11;14.80;99.90
14749;DHT22;7466;53.574;9.976;2023-05-10T10:57:45;15.00;99.90
14749;DHT22;7466;53.574;9.976;2023-05-10T11:00:26;14.80;99.90
14749;DHT22;7466;53.574;9.976;2023-05-10T11:02:56;14.60;99.90
14749;DHT22;7466;53.574;9.976;2023-05-10T11:05:25;14.70;99.90
14749;DHT22;7466;53.574;9.976;2023-05-10T11:07:54;14.60;99.90
14749;DHT22;7466;53.574;9.976;2023-05-10T11:10:21;14.70;99.90
14749;DHT22;7466;53.574;9.976;2023-05-10T11:12:52;14.90;99.90
14749;DHT22;7466;53.574;9.976;2023-05-10T11:15:19;14.70;99.90
14749;DHT22;7466;53.574;9.976;2023-05-10T11:17:51;14.80;99.90
14749;DHT22;7466;53.574;9.976;2023-05-10T11:20:19;14.70;99.90
14749;DHT22;7466;53.574;9.976;2023-05-10T11:22:53;14.60;99.90
14749;DHT22;7466;53.574;9.976;2023-05-10T11:25:26;14.70;99.90
14749;DHT22;7466;53.574;9.976;2023-05-10T11:27:53;14.90;99.90
14749;DHT22;7466;53.574;9.976;2023-05-10T11:30:20;14.70;99.90
14749;DHT22;7466;53.574;9.976;2023-05-10T11:35:37;14.70;99.90
14749;DHT22;7466;53.574;9.976;2023-05-10T11:38:06;14.80;99.90
14749;DHT22;7466;53.574;9.976;2023-05-10T11:40:34;14.80;99.90
14749;DHT22;7466;53.574;9.976;2023-05-10T11:43:01;14.90;99.90
14749;DHT22;7466;53.574;9.976;2023-05-10T11:45:28;14.70;99.90
14749;DHT22;7466;53.574;9.976;2023-05-10T11:47:57;14.70;99.90
14749;DHT22;7466;53.574;9.976;2023-05-10T11:50:24;14.70;99.90
14749;DHT22;7466;53.574;9.976;2023-05-10T11:52:51;14.60;99.90
14749;DHT22;7466;53.574;9.976;2023-05-10T11:55:18;14.50;99.90
14749;DHT22;7466;53.574;9.976;2023-05-10T11:57:53;14.50;99.90
14749;DHT22;7466;53.574;9.976;2023-05-10T12:00:20;14.40;99.90
14749;DHT22;7466;53.574;9.976;2023-05-10T12:02:47;14.30;99.90
14749;DHT22;7466;53.574;9.976;2023-05-10T12:05:14;14.30;99.90
14749;DHT22;7466;53.574;9.976;2023-05-10T12:07:41;14.40;99.90
14749;DHT22;7466;53.574;9.976;2023-05-10T12:10:09;14.40;99.90
14749;DHT22;7466;53.574;9.976;2023-05-10T12:12:38;14.40;99.90
14749;DHT22;7466;53.574;9.976;2023-05-10T12:15:11;14.50;99.90
14749;DHT22;7466;53.574;9.976;2023-05-10T12:17:38;14.60;99.90
14749;DHT22;7466;53.574;9.976;2023-05-10T12:20:18;14.70;99.90
14749;DHT22;7466;53.574;9.976;2023-05-10T12:22:50;14.90;99.90
14749;DHT22;7466;53.574;9.976;2023-05-10T12:25:18;14.90;99.90
14749;DHT22;7466;53.574;9.976;2023-05-10T12:27:51;14.90;99.90
14749;DHT22;7466;53.574;9.976;2023-05-10T12:30:21;15.10;99.90
14749;DHT22;7466;53.574;9.976;2023-05-10T12:32:48;15.30;99.90
14749;DHT22;7466;53.574;9.976;2023-05-10T12:35:15;15.20;99.90
14749;DHT22;7466;53.574;9.976;2023-05-10T12:37:42;15.30;99.90
14749;DHT22;7466;53.574;9.976;2023-05-10T12:40:10;15.20;99.90
14749;DHT22;7466;53.574;9.976;2023-05-10T12:42:39;15.20;99.90
14749;DHT22;7466;53.574;9.976;2023-05-10T12:45:07;15.20;99.90
14749;DHT22;7466;53.574;9.976;2023-05-10T12:47:37;15.40;99.90
14749;DHT22;7466;53.574;9.976;2023-05-10T12:50:05;15.30;99.90
14749;DHT22;7466;53.574;9.976;2023-05-10T12:52:34;15.50;99.90
14749;DHT22;7466;53.574;9.976;2023-05-10T12:55:01;15.70;99.90
14749;DHT22;7466;53.574;9.976;2023-05-10T12:57:28;16.00;99.90
14749;DHT22;7466;53.574;9.976;2023-05-10T12:59:57;16.00;99.90
14749;DHT22;7466;53.574;9.976;2023-05-10T13:02:23;16.00;99.90
14749;DHT22;7466;53.574;9.976;2023-05-10T13:04:52;16.10;99.90
14749;DHT22;7466;53.574;9.976;2023-05-10T13:07:18;16.30;99.90
14749;DHT22;7466;53.574;9.976;2023-05-10T13:09:51;16.40;99.90
14749;DHT22;7466;53.574;9.976;2023-05-10T13:12:18;16.60;99.90
14749;DHT22;7466;53.574;9.976;2023-05-10T13:14:49;16.40;99.90
14749;DHT22;7466;53.574;9.976;2023-05-10T13:17:15;16.20;99.90
14749;DHT22;7466;53.574;9.976;2023-05-10T13:19:42;16.40;99.90
14749;DHT22;7466;53.574;9.976;2023-05-10T13:22:14;16.30;99.90
14749;DHT22;7466;53.574;9.976;2023-05-10T13:24:40;16.30;99.90
14749;DHT22;7466;53.574;9.976;2023-05-10T13:27:07;16.40;99.90
14749;DHT22;7466;53.574;9.976;2023-05-10T13:29:34;16.50;99.90
14749;DHT22;7466;53.574;9.976;2023-05-10T13:32:01;16.60;99.90
14749;DHT22;7466;53.574;9.976;2023-05-10T13:34:27;16.70;99.90
14749;DHT22;7466;53.574;9.976;2023-05-10T13:36:54;16.90;99.90
14749;DHT22;7466;53.574;9.976;2023-05-10T13:39:23;16.90;99.90
14749;DHT22;7466;53.574;9.976;2023-05-10T13:41:50;17.40;99.90
14749;DHT22;7466;53.574;9.976;2023-05-10T13:44:17;17.40;99.90
14749;DHT22;7466;53.574;9.976;2023-05-10T13:46:44;17.20;99.90
14749;DHT22;7466;53.574;9.976;2023-05-10T13:49:12;17.30;99.90
14749;DHT22;7466;53.574;9.976;2023-05-10T13:51:39;17.30;99.90
14749;DHT22;7466;53.574;9.976;2023-05-10T13:54:06;17.30;99.90
14749;DHT22;7466;53.574;9.976;2023-05-10T13:56:34;17.00;99.90
14749;DHT22;7466;53.574;9.976;2023-05-10T13:59:01;17.10;99.90
14749;DHT22;7466;53.574;9.976;2023-05-10T14:01:28;17.10;99.90
14749;DHT22;7466;53.574;9.976;2023-05-10T14:03:59;17.20;99.90
14749;DHT22;7466;53.574;9.976;2023-05-10T14:06:26;17.10;99.90
14749;DHT22;7466;53.574;9.976;2023-05-10T14:08:53;17.20;99.90
14749;DHT22;7466;53.574;9.976;2023-05-10T14:11:21;17.40;99.90
14749;DHT22;7466;53.574;9.976;2023-05-10T14:13:50;17.50;99.90
14749;DHT22;7466;53.574;9.976;2023-05-10T14:16:17;17.70;99.90
14749;DHT22;7466;53.574;9.976;2023-05-10T14:18:44;17.70;99.90
14749;DHT22;7466;53.574;9.976;2023-05-10T14:21:11;17.30;99.90
14749;DHT22;7466;53.574;9.976;2023-05-10T14:23:38;17.20;99.90
14749;DHT22;7466;53.574;9.976;2023-05-10T14:26:04;17.20;99.90
14749;DHT22;7466;53.574;9.976;2023-05-10T14:28:31;17.10;99.90
14749;DHT22;7466;53.574;9.976;2023-05-10T14:30:59;17.30;99.90
14749;DHT22;7466;53.574;9.976;2023-05-10T14:33:26;17.30;99.90
14749;DHT22;7466;53.574;9.976;2023-05-10T14:35:54;17.30;99.90
14749;DHT22;7466;53.574;9.976;2023-05-10T14:38:22;17.20;99.90
14749;DHT22;7466;53.574;9.976;2023-05-10T14:40:50;17.00;99.90
14749;DHT22;7466;53.574;9.976;2023-05-10T14:43:17;17.10;99.90
14749;DHT22;7466;53.574;9.976;2023-05-10T14:45:44;17.10;99.90
14749;DHT22;7466;53.574;9.976;2023-05-10T14:48:12;17.20;99.90
14749;DHT22;7466;53.574;9.976;2023-05-10T14:50:41;17.10;99.90
14749;DHT22;7466;53.574;9.976;2023-05-10T14:53:39;17.00;99.90
14749;DHT22;7466;53.574;9.976;2023-05-10T14:56:06;17.10;99.90
14749;DHT22;7466;53.574;9.976;2023-05-10T14:58:32;17.00;99.90
14749;DHT22;7466;53.574;9.976;2023-05-10T15:00:59;17.00;99.90
14749;DHT22;7466;53.574;9.976;2023-05-10T15:03:27;16.90;99.90
14749;DHT22;7466;53.574;9.976;2023-05-10T15:05:54;16.70;99.90
14749;DHT22;7466;53.574;9.976;2023-05-10T15:08:24;16.50;99.90
14749;DHT22;7466;53.574;9.976;2023-05-10T15:10:51;16.40;99.90
14749;DHT22;7466;53.574;9.976;2023-05-10T15:13:34;16.30;99.90
14749;DHT22;7466;53.574;9.976;2023-05-10T15:16:01;16.30;99.90
14749;DHT22;7466;53.574;9.976;2023-05-10T15:18:38;16.30;99.90
14749;DHT22;7466;53.574;9.976;2023-05-10T15:21:05;16.70;99.90
14749;DHT22;7466;53.574;9.976;2023-05-10T15:23:31;16.80;99.90
14749;DHT22;7466;53.574;9.976;2023-05-10T15:25:58;16.90;99.90
14749;DHT22;7466;53.574;9.976;2023-05-10T15:28:25;16.90;99.90
14749;DHT22;7466;53.574;9.976;2023-05-10T15:30:52;17.10;99.90
14749;DHT22;7466;53.574;9.976;2023-05-10T15:33:26;17.10;99.90
14749;DHT22;7466;53.574;9.976;2023-05-10T15:35:57;17.00;99.90
14749;DHT22;7466;53.574;9.976;2023-05-10T15:38:31;17.00;99.90
14749;DHT22;7466;53.574;9.976;2023-05-10T15:41:01;17.10;99.90
14749;DHT22;7466;53.574;9.976;2023-05-10T15:43:28;17.20;99.90
14749;DHT22;7466;53.574;9.976;2023-05-10T15:45:54;17.20;99.90
14749;DHT22;7466;53.574;9.976;2023-05-10T15:48:24;16.90;99.90
14749;DHT22;7466;53.574;9.976;2023-05-10T15:50:52;16.70;99.90
14749;DHT22;7466;53.574;9.976;2023-05-10T15:53:23;16.60;99.90
14749;DHT22;7466;53.574;9.976;2023-05-10T15:55:50;16.60;99.90
14749;DHT22;7466;53.574;9.976;2023-05-10T15:58:20;16.60;99.90
14749;DHT22;7466;53.574;9.976;2023-05-10T16:00:57;16.40;99.90